Time;durP1;ratioP1;P1;durP2;ratioP2;P2;SDS_P1;SDS_P2;PMS_P1;PMS_P2;Temp;Humidity;BMP_temperature;BMP_pressure;BME280_temperature;BME280_humidity;BME280_pressure;Samples;Min_cycle;Max_cycle;Signal;HPM_P1;HPM_P2
2023/03/09 00:00:54;;;;;;;4.90;2.87;;;;;;;;;;5083313;27;20273;-65
2023/03/09 00:03:21;;;;;;;3.37;2.57;;;;;;;;;;5080200;27;20331;-64
2023/03/09 00:05:56;;;;;;;6.17;2.63;;;;;;;;;;5100264;27;20217;-65
2023/03/09 00:08:24;;;;;;;4.33;2.47;;;;;;;;;;5081277;27;20261;-64
2023/03/09 00:10:52;;;;;;;3.07;2.67;;;;;;;;;;5095381;27;20321;-65
2023/03/09 00:13:20;;;;;;;3.73;2.13;;;;;;;;;;5083362;27;20811;-64
2023/03/09 00:15:51;;;;;;;4.20;2.60;;;;;;;;;;5097483;27;20204;-65
2023/03/09 00:18:19;;;;;;;3.87;2.30;;;;;;;;;;5105081;28;20192;-65
2023/03/09 00:20:46;;;;;;;4.57;2.80;;;;;;;;;;5103578;27;20196;-63
2023/03/09 00:23:17;;;;;;;2.63;2.23;;;;;;;;;;5109830;28;20262;-64
2023/03/09 00:25:45;;;;;;;2.70;2.00;;;;;;;;;;5106991;28;20291;-63
2023/03/09 00:28:13;;;;;;;4.07;2.20;;;;;;;;;;5102300;28;20208;-64
2023/03/09 00:30:40;;;;;;;3.20;2.40;;;;;;;;;;5108299;27;20211;-63
2023/03/09 00:33:08;;;;;;;5.87;2.63;;;;;;;;;;5084271;27;20232;-63
2023/03/09 00:35:36;;;;;;;4.50;3.13;;;;;;;;;;5083597;28;20208;-63
2023/03/09 00:38:04;;;;;;;3.63;3.00;;;;;;;;;;5084425;27;20389;-63
2023/03/09 00:40:31;;;;;;;4.00;3.60;;;;;;;;;;5080399;27;20335;-63
2023/03/09 00:42:59;;;;;;;3.90;3.00;;;;;;;;;;5083381;27;20228;-63
2023/03/09 00:45:26;;;;;;;6.30;3.43;;;;;;;;;;5077495;27;20233;-64
2023/03/09 00:47:54;;;;;;;3.90;2.73;;;;;;;;;;5097157;27;20950;-64
2023/03/09 00:50:21;;;;;;;2.97;2.70;;;;;;;;;;5081400;27;20208;-63
2023/03/09 00:52:49;;;;;;;3.00;2.70;;;;;;;;;;5085742;28;20291;-63
2023/03/09 00:55:16;;;;;;;5.00;2.73;;;;;;;;;;5081360;27;20235;-64
2023/03/09 00:57:43;;;;;;;2.83;2.50;;;;;;;;;;5083092;27;20208;-63
2023/03/09 01:00:11;;;;;;;2.30;2.10;;;;;;;;;;5092593;28;20204;-64
2023/03/09 01:02:39;;;;;;;2.00;1.83;;;;;;;;;;5094309;27;20752;-64
2023/03/09 01:05:06;;;;;;;2.00;1.90;;;;;;;;;;5073759;28;20330;-62
2023/03/09 01:07:34;;;;;;;1.43;1.17;;;;;;;;;;5084253;28;20286;-64
2023/03/09 01:10:02;;;;;;;1.73;1.63;;;;;;;;;;5065831;27;20323;-63
2023/03/09 01:12:29;;;;;;;1.73;1.10;;;;;;;;;;5060033;28;20934;-62
2023/03/09 01:14:58;;;;;;;1.33;1.10;;;;;;;;;;5081820;27;20358;-63
2023/03/09 01:17:25;;;;;;;0.87;0.87;;;;;;;;;;5066105;27;20239;-63
2023/03/09 01:19:52;;;;;;;0.70;0.70;;;;;;;;;;5067921;27;20204;-62
2023/03/09 01:22:20;;;;;;;1.00;0.90;;;;;;;;;;5076833;27;20219;-62
2023/03/09 01:24:48;;;;;;;1.80;0.80;;;;;;;;;;5073037;27;21461;-62
2023/03/09 01:27:15;;;;;;;0.80;0.80;;;;;;;;;;5060831;27;20208;-62
2023/03/09 01:29:42;;;;;;;0.87;0.87;;;;;;;;;;5071055;27;20331;-63
2023/03/09 01:32:10;;;;;;;1.17;1.10;;;;;;;;;;5073038;27;20228;-61
2023/03/09 01:34:37;;;;;;;1.77;1.03;;;;;;;;;;5083983;27;20238;-64
2023/03/09 01:37:04;;;;;;;3.13;1.50;;;;;;;;;;5078405;27;21163;-62
2023/03/09 01:39:32;;;;;;;0.90;0.90;;;;;;;;;;5084704;27;20211;-65
2023/03/09 01:41:59;;;;;;;1.57;1.30;;;;;;;;;;5078964;27;20253;-64
2023/03/09 01:44:27;;;;;;;0.83;0.83;;;;;;;;;;5085665;28;20200;-62
2023/03/09 01:46:56;;;;;;;2.70;1.40;;;;;;;;;;5091431;27;20204;-62
2023/03/09 01:49:42;;;;;;;0.93;0.93;;;;;;;;;;5086225;27;20207;-63
2023/03/09 01:52:19;;;;;;;2.30;0.80;;;;;;;;;;5082726;27;20228;-65
2023/03/09 01:54:58;;;;;;;1.50;0.80;;;;;;;;;;5095571;27;20244;-65
2023/03/09 01:57:25;;;;;;;0.87;0.87;;;;;;;;;;5080447;28;20287;-64
2023/03/09 01:59:56;;;;;;;0.80;0.80;;;;;;;;;;5079670;28;20295;-63
2023/03/09 02:02:25;;;;;;;1.17;1.13;;;;;;;;;;5074791;27;20311;-63
2023/03/09 02:04:55;;;;;;;1.17;0.80;;;;;;;;;;5073045;28;20292;-62
2023/03/09 02:07:24;;;;;;;0.63;0.63;;;;;;;;;;5073946;27;20341;-63
2023/03/09 02:09:58;;;;;;;1.00;1.00;;;;;;;;;;5079123;28;20244;-64
2023/03/09 02:12:27;;;;;;;0.90;0.90;;;;;;;;;;5061476;28;20328;-65
2023/03/09 02:14:55;;;;;;;1.13;0.87;;;;;;;;;;5061971;28;20267;-64
2023/03/09 02:17:23;;;;;;;2.00;1.10;;;;;;;;;;5064028;28;20231;-61
2023/03/09 02:19:58;;;;;;;1.10;1.10;;;;;;;;;;5058815;28;20467;-63
2023/03/09 02:22:25;;;;;;;1.13;1.10;;;;;;;;;;5077830;27;20299;-62
2023/03/09 02:24:55;;;;;;;2.53;2.03;;;;;;;;;;5066284;27;20212;-65
2023/03/09 02:27:25;;;;;;;3.43;1.27;;;;;;;;;;5065195;28;20307;-66
2023/03/09 02:29:53;;;;;;;0.90;0.90;;;;;;;;;;5071804;28;20235;-65
2023/03/09 02:32:21;;;;;;;0.77;0.77;;;;;;;;;;5080307;27;20255;-65
2023/03/09 02:34:49;;;;;;;0.90;0.90;;;;;;;;;;5095243;27;20234;-65
2023/03/09 02:37:25;;;;;;;0.80;0.80;;;;;;;;;;5079264;28;20287;-64
2023/03/09 02:39:55;;;;;;;1.60;0.80;;;;;;;;;;5079124;28;20200;-65
2023/03/09 02:42:23;;;;;;;0.90;0.90;;;;;;;;;;5082489;28;20321;-64
2023/03/09 02:44:51;;;;;;;0.70;0.70;;;;;;;;;;5096168;27;23502;-63
2023/03/09 02:47:19;;;;;;;2.90;0.80;;;;;;;;;;5088611;27;20919;-63
2023/03/09 02:49:47;;;;;;;0.80;0.80;;;;;;;;;;5083965;27;20236;-62
2023/03/09 02:52:14;;;;;;;0.70;0.70;;;;;;;;;;5088562;27;20381;-65
2023/03/09 02:54:42;;;;;;;1.47;0.77;;;;;;;;;;5086122;27;20235;-64
2023/03/09 02:57:09;;;;;;;0.80;0.80;;;;;;;;;;5091183;27;20297;-65
2023/03/09 02:59:36;;;;;;;1.20;0.80;;;;;;;;;;5126662;27;20777;-64
2023/03/09 03:02:04;;;;;;;0.90;0.90;;;;;;;;;;5111866;28;20265;-63
2023/03/09 03:04:31;;;;;;;1.67;0.90;;;;;;;;;;5110161;27;20234;-65
2023/03/09 03:06:58;;;;;;;1.30;0.90;;;;;;;;;;5103836;28;20213;-62
2023/03/09 03:09:26;;;;;;;1.50;0.90;;;;;;;;;;5108190;27;20298;-64
2023/03/09 03:11:54;;;;;;;0.80;0.80;;;;;;;;;;5084422;27;20243;-65
2023/03/09 03:14:21;;;;;;;1.53;1.00;;;;;;;;;;5098283;27;20224;-63
2023/03/09 03:16:48;;;;;;;1.10;1.00;;;;;;;;;;5099458;27;20264;-66
2023/03/09 03:19:16;;;;;;;2.40;1.00;;;;;;;;;;5091181;27;20291;-64
2023/03/09 03:21:43;;;;;;;1.10;1.00;;;;;;;;;;5089382;27;20208;-66
2023/03/09 03:24:10;;;;;;;0.80;0.80;;;;;;;;;;5092684;27;20211;-65
2023/03/09 03:26:37;;;;;;;2.50;1.10;;;;;;;;;;5086205;27;20236;-66
2023/03/09 03:29:06;;;;;;;1.53;1.00;;;;;;;;;;5092364;27;20216;-65
2023/03/09 03:31:34;;;;;;;1.10;1.00;;;;;;;;;;5082051;28;20691;-66
2023/03/09 03:34:01;;;;;;;2.00;1.07;;;;;;;;;;5089783;27;20593;-66
2023/03/09 03:36:29;;;;;;;1.23;1.00;;;;;;;;;;5084672;27;20294;-65
2023/03/09 03:38:56;;;;;;;1.23;0.90;;;;;;;;;;5091751;27;20203;-63
2023/03/09 03:41:24;;;;;;;1.20;1.10;;;;;;;;;;5100427;27;20241;-64
2023/03/09 03:43:51;;;;;;;1.10;1.00;;;;;;;;;;5090190;27;20285;-64
2023/03/09 03:46:19;;;;;;;1.10;1.00;;;;;;;;;;5085279;28;20642;-64
2023/03/09 03:48:46;;;;;;;1.10;1.10;;;;;;;;;;5090341;27;20260;-63
2023/03/09 03:51:13;;;;;;;1.23;1.10;;;;;;;;;;5086975;27;20242;-64
2023/03/09 03:53:42;;;;;;;1.67;1.33;;;;;;;;;;5090751;27;20836;-66
2023/03/09 03:56:10;;;;;;;1.70;1.07;;;;;;;;;;5084065;27;20208;-66
2023/03/09 03:58:38;;;;;;;1.17;1.07;;;;;;;;;;5086493;28;20289;-66
2023/03/09 04:01:06;;;;;;;1.20;1.10;;;;;;;;;;5083902;27;20200;-65
2023/03/09 04:03:36;;;;;;;1.27;1.03;;;;;;;;;;5087912;27;20247;-63
2023/03/09 04:06:04;;;;;;;3.00;1.20;;;;;;;;;;5089166;27;20237;-64
2023/03/09 04:08:32;;;;;;;2.20;0.93;;;;;;;;;;5076633;27;20680;-66
2023/03/09 04:10:59;;;;;;;1.70;1.30;;;;;;;;;;5070439;27;21406;-66
2023/03/09 04:13:27;;;;;;;0.97;0.97;;;;;;;;;;5076243;27;20269;-67
2023/03/09 04:15:54;;;;;;;4.17;2.30;;;;;;;;;;5080796;28;23745;-65
2023/03/09 04:18:22;;;;;;;1.10;1.00;;;;;;;;;;5099973;27;20200;-65
2023/03/09 04:20:49;;;;;;;1.50;1.10;;;;;;;;;;5094446;28;20289;-66
2023/03/09 04:23:17;;;;;;;2.47;1.23;;;;;;;;;;5102810;27;20247;-65
2023/03/09 04:25:44;;;;;;;3.33;1.63;;;;;;;;;;5084047;27;20223;-66
2023/03/09 04:28:11;;;;;;;4.63;2.63;;;;;;;;;;5099640;27;20299;-64
2023/03/09 04:30:39;;;;;;;4.63;2.30;;;;;;;;;;5092974;27;20208;-65
2023/03/09 04:33:06;;;;;;;4.23;2.27;;;;;;;;;;5099678;28;20230;-64
2023/03/09 04:35:34;;;;;;;2.93;1.47;;;;;;;;;;5088089;27;20216;-64
2023/03/09 04:38:01;;;;;;;3.13;1.67;;;;;;;;;;5089803;28;20682;-65
2023/03/09 04:40:28;;;;;;;4.50;1.70;;;;;;;;;;5091162;27;20232;-64
2023/03/09 04:42:55;;;;;;;2.97;1.50;;;;;;;;;;5096676;27;20986;-63
2023/03/09 04:45:24;;;;;;;4.57;1.70;;;;;;;;;;5073727;27;20269;-62
2023/03/09 04:47:51;;;;;;;4.10;1.80;;;;;;;;;;5069525;27;20212;-62
2023/03/09 04:50:19;;;;;;;3.57;1.87;;;;;;;;;;5071732;27;20208;-62
2023/03/09 04:52:46;;;;;;;6.80;1.90;;;;;;;;;;5072086;27;20228;-64
2023/03/09 04:55:14;;;;;;;7.40;2.13;;;;;;;;;;5070636;27;20752;-64
2023/03/09 04:57:42;;;;;;;4.53;1.83;;;;;;;;;;5076053;27;20988;-62
2023/03/09 05:00:10;;;;;;;7.90;1.87;;;;;;;;;;5094333;28;20856;-64
2023/03/09 05:02:38;;;;;;;6.97;1.83;;;;;;;;;;5093133;27;20227;-64
2023/03/09 05:05:07;;;;;;;13.90;2.63;;;;;;;;;;5101247;27;20580;-62
2023/03/09 05:07:35;;;;;;;5.20;1.80;;;;;;;;;;5107985;28;20204;-62
2023/03/09 05:10:03;;;;;;;8.97;1.73;;;;;;;;;;5088401;27;20714;-62
2023/03/09 05:12:31;;;;;;;6.80;1.87;;;;;;;;;;5085652;28;20227;-65
2023/03/09 05:14:59;;;;;;;4.20;1.70;;;;;;;;;;5086493;27;20865;-62
2023/03/09 05:17:27;;;;;;;4.40;1.87;;;;;;;;;;5079097;27;20231;-63
2023/03/09 05:19:55;;;;;;;4.27;1.50;;;;;;;;;;5100570;27;20200;-62
2023/03/09 05:22:26;;;;;;;4.53;1.60;;;;;;;;;;5080884;27;20725;-63
2023/03/09 05:24:53;;;;;;;6.47;2.23;;;;;;;;;;5081909;27;20612;-62
2023/03/09 05:27:20;;;;;;;5.67;1.40;;;;;;;;;;5077099;28;20869;-64
2023/03/09 05:29:51;;;;;;;7.93;2.13;;;;;;;;;;5083287;28;20571;-64
2023/03/09 05:32:18;;;;;;;7.80;1.80;;;;;;;;;;5075384;28;20965;-64
2023/03/09 05:34:46;;;;;;;3.13;2.33;;;;;;;;;;5080211;27;20225;-64
2023/03/09 05:37:14;;;;;;;4.37;1.77;;;;;;;;;;5070400;28;20259;-62
2023/03/09 05:39:41;;;;;;;4.97;1.70;;;;;;;;;;5063567;28;20327;-64
2023/03/09 05:42:09;;;;;;;3.30;1.80;;;;;;;;;;5073683;28;20238;-62
2023/03/09 05:44:37;;;;;;;7.13;2.00;;;;;;;;;;5071021;28;20208;-63
2023/03/09 05:47:04;;;;;;;3.70;1.50;;;;;;;;;;5072032;27;20600;-62
2023/03/09 05:49:31;;;;;;;4.07;2.03;;;;;;;;;;5072625;27;20305;-62
2023/03/09 05:51:59;;;;;;;5.70;2.00;;;;;;;;;;5065448;28;20276;-62
2023/03/09 05:54:26;;;;;;;5.03;1.50;;;;;;;;;;5065371;27;20239;-62
2023/03/09 05:56:54;;;;;;;4.33;1.57;;;;;;;;;;5070214;27;20381;-62
2023/03/09 05:59:22;;;;;;;2.93;1.80;;;;;;;;;;5071986;28;20208;-62
2023/03/09 06:01:49;;;;;;;3.80;1.57;;;;;;;;;;5064814;27;20240;-62
2023/03/09 06:04:16;;;;;;;4.40;1.57;;;;;;;;;;5079996;27;20204;-62
2023/03/09 06:06:44;;;;;;;7.07;1.90;;;;;;;;;;5076583;28;20297;-62
2023/03/09 06:09:13;;;;;;;6.53;1.70;;;;;;;;;;5078366;27;20223;-64
2023/03/09 06:11:40;;;;;;;4.43;1.80;;;;;;;;;;5078637;27;20407;-63
2023/03/09 06:14:08;;;;;;;3.77;1.93;;;;;;;;;;5085524;28;20295;-63
2023/03/09 06:16:36;;;;;;;6.63;1.83;;;;;;;;;;5082062;27;20211;-63
2023/03/09 06:19:04;;;;;;;8.03;2.30;;;;;;;;;;5083849;27;20211;-62
2023/03/09 06:21:31;;;;;;;7.33;1.87;;;;;;;;;;5079368;27;20322;-62
2023/03/09 06:23:58;;;;;;;11.23;6.03;;;;;;;;;;5085040;27;20304;-64
2023/03/09 06:26:26;;;;;;;4.73;1.67;;;;;;;;;;5083592;28;20212;-63
2023/03/09 06:28:53;;;;;;;4.20;1.70;;;;;;;;;;5081007;27;20300;-63
2023/03/09 06:31:26;;;;;;;4.70;1.90;;;;;;;;;;5088331;28;20226;-64
2023/03/09 06:33:53;;;;;;;3.33;1.60;;;;;;;;;;5084793;28;20548;-64
2023/03/09 06:36:20;;;;;;;2.63;1.57;;;;;;;;;;5091178;28;20289;-63
2023/03/09 06:38:48;;;;;;;7.27;2.27;;;;;;;;;;5081531;28;20200;-64
2023/03/09 06:41:15;;;;;;;5.73;1.93;;;;;;;;;;5082300;28;20229;-63
2023/03/09 06:43:45;;;;;;;5.50;1.90;;;;;;;;;;5101136;27;20227;-64
2023/03/09 06:46:12;;;;;;;7.00;2.10;;;;;;;;;;5083670;28;20299;-63
2023/03/09 06:48:40;;;;;;;5.90;2.07;;;;;;;;;;5101343;27;20223;-64
2023/03/09 06:51:07;;;;;;;6.27;1.70;;;;;;;;;;5083969;28;20751;-63
2023/03/09 06:53:34;;;;;;;5.90;1.83;;;;;;;;;;5081849;28;20288;-64
2023/03/09 06:56:03;;;;;;;3.87;1.77;;;;;;;;;;5081716;28;20781;-64
2023/03/09 06:58:32;;;;;;;7.73;2.03;;;;;;;;;;5089479;28;20212;-64
2023/03/09 07:01:05;;;;;;;5.13;1.80;;;;;;;;;;5101184;28;20228;-63
2023/03/09 07:03:33;;;;;;;5.43;1.37;;;;;;;;;;5102693;28;20281;-64
2023/03/09 07:06:00;;;;;;;4.90;1.60;;;;;;;;;;5106071;28;20208;-63
2023/03/09 07:08:28;;;;;;;3.20;1.70;;;;;;;;;;5105758;27;20192;-63
2023/03/09 07:10:55;;;;;;;8.67;1.97;;;;;;;;;;5091606;28;20216;-64
2023/03/09 07:13:24;;;;;;;3.33;1.63;;;;;;;;;;5088362;28;20231;-64
2023/03/09 07:15:51;;;;;;;5.13;1.50;;;;;;;;;;5084393;28;20224;-63
2023/03/09 07:18:19;;;;;;;4.87;1.83;;;;;;;;;;5087211;28;20738;-63
2023/03/09 07:20:46;;;;;;;4.10;1.87;;;;;;;;;;5084575;28;20288;-65
2023/03/09 07:23:13;;;;;;;3.93;1.60;;;;;;;;;;5081750;28;20225;-64
2023/03/09 07:25:41;;;;;;;7.67;1.87;;;;;;;;;;5096416;27;20785;-64
2023/03/09 07:28:08;;;;;;;5.40;1.70;;;;;;;;;;5083398;28;20959;-65
2023/03/09 07:30:39;;;;;;;2.47;1.70;;;;;;;;;;5083825;28;20217;-64
2023/03/09 07:33:07;;;;;;;6.67;1.87;;;;;;;;;;5083201;27;20762;-64
2023/03/09 07:35:37;;;;;;;5.00;1.50;;;;;;;;;;5088581;27;21018;-64
2023/03/09 07:38:05;;;;;;;4.53;1.70;;;;;;;;;;5090117;27;20201;-64
2023/03/09 07:40:32;;;;;;;5.43;1.87;;;;;;;;;;5100556;27;20212;-64
2023/03/09 07:43:00;;;;;;;7.70;1.77;;;;;;;;;;5087265;27;20296;-63
2023/03/09 07:45:28;;;;;;;3.87;1.60;;;;;;;;;;5087124;27;20628;-64
2023/03/09 07:47:55;;;;;;;6.00;2.03;;;;;;;;;;5089522;27;20212;-63
2023/03/09 07:50:23;;;;;;;3.93;1.90;;;;;;;;;;5090637;28;20215;-63
2023/03/09 07:52:50;;;;;;;4.40;1.50;;;;;;;;;;5086337;27;20582;-64
2023/03/09 07:55:20;;;;;;;3.50;1.80;;;;;;;;;;5088314;27;20784;-62
2023/03/09 07:57:47;;;;;;;5.30;2.10;;;;;;;;;;5085190;27;20284;-63
2023/03/09 08:00:20;;;;;;;6.73;1.50;;;;;;;;;;5085755;27;20236;-62
2023/03/09 08:02:47;;;;;;;8.30;1.70;;;;;;;;;;5092576;27;20228;-62
2023/03/09 08:05:15;;;;;;;4.60;1.90;;;;;;;;;;5084757;27;20208;-62
2023/03/09 08:07:42;;;;;;;5.73;1.90;;;;;;;;;;5091799;27;20240;-62
2023/03/09 08:10:11;;;;;;;2.90;1.43;;;;;;;;;;5085548;27;20757;-64
2023/03/09 08:12:38;;;;;;;20.53;3.07;;;;;;;;;;5089947;28;20587;-64
2023/03/09 08:15:06;;;;;;;4.57;1.67;;;;;;;;;;5089389;27;20232;-62
2023/03/09 08:17:34;;;;;;;3.73;1.83;;;;;;;;;;5103699;28;20634;-63
2023/03/09 08:20:04;;;;;;;5.60;1.70;;;;;;;;;;5099437;28;20656;-64
2023/03/09 08:22:32;;;;;;;5.00;1.70;;;;;;;;;;5107457;28;20622;-62
2023/03/09 08:24:59;;;;;;;3.83;1.50;;;;;;;;;;5104929;28;20269;-64
2023/03/09 08:27:27;;;;;;;5.33;1.83;;;;;;;;;;5093835;28;20288;-61
2023/03/09 08:29:54;;;;;;;6.30;1.90;;;;;;;;;;5084477;27;20273;-63
2023/03/09 08:32:23;;;;;;;5.57;1.87;;;;;;;;;;5083453;28;20343;-64
2023/03/09 08:34:54;;;;;;;4.07;1.57;;;;;;;;;;5085523;27;20216;-63
2023/03/09 08:37:22;;;;;;;3.13;1.60;;;;;;;;;;5082403;27;20736;-64
2023/03/09 08:39:51;;;;;;;5.60;1.50;;;;;;;;;;5083209;27;20211;-63
2023/03/09 08:42:19;;;;;;;3.17;1.53;;;;;;;;;;5098911;27;20593;-63
2023/03/09 08:44:46;;;;;;;4.33;1.50;;;;;;;;;;5082269;28;20208;-65
2023/03/09 08:47:13;;;;;;;4.07;1.53;;;;;;;;;;5085545;27;20704;-63
2023/03/09 08:49:41;;;;;;;2.87;1.90;;;;;;;;;;5088043;27;20207;-65
2023/03/09 08:52:09;;;;;;;5.37;1.50;;;;;;;;;;5082465;27;20248;-65
2023/03/09 08:54:36;;;;;;;1.57;1.33;;;;;;;;;;5090139;27;20224;-66
2023/03/09 08:57:04;;;;;;;4.53;1.60;;;;;;;;;;5087410;27;29331;-64
2023/03/09 08:59:31;;;;;;;2.87;1.90;;;;;;;;;;5103855;28;20236;-65
2023/03/09 09:01:58;;;;;;;3.70;1.37;;;;;;;;;;5110666;28;20216;-64
2023/03/09 09:04:26;;;;;;;2.77;1.20;;;;;;;;;;5108817;28;20574;-65
2023/03/09 09:06:54;;;;;;;2.70;1.00;;;;;;;;;;5104454;28;20233;-64
2023/03/09 09:09:22;;;;;;;4.20;1.40;;;;;;;;;;5093636;28;20239;-65
2023/03/09 09:11:49;;;;;;;5.10;1.27;;;;;;;;;;5087578;27;20304;-65
2023/03/09 09:14:17;;;;;;;2.87;1.30;;;;;;;;;;5084637;27;20208;-65
2023/03/09 09:16:45;;;;;;;2.37;1.30;;;;;;;;;;5090112;27;20302;-64
2023/03/09 09:19:12;;;;;;;3.70;1.30;;;;;;;;;;5081619;27;20213;-65
2023/03/09 09:21:40;;;;;;;4.73;1.73;;;;;;;;;;5087811;27;20208;-64
2023/03/09 09:24:07;;;;;;;1.40;1.20;;;;;;;;;;5088697;28;20205;-64
2023/03/09 09:26:35;;;;;;;2.80;1.40;;;;;;;;;;5083891;27;20299;-63
2023/03/09 09:29:04;;;;;;;1.33;1.23;;;;;;;;;;5099080;27;20652;-66
2023/03/09 09:31:33;;;;;;;2.93;1.50;;;;;;;;;;5082803;28;20280;-63
2023/03/09 09:34:00;;;;;;;3.67;1.43;;;;;;;;;;5084856;28;20707;-65
2023/03/09 09:36:28;;;;;;;1.90;1.20;;;;;;;;;;5080698;28;20777;-63
2023/03/09 09:38:56;;;;;;;1.47;1.07;;;;;;;;;;5084711;27;20208;-63
2023/03/09 09:41:42;;;;;;;3.13;1.43;;;;;;;;;;5084149;28;20197;-64
2023/03/09 09:44:15;;;;;;;2.93;1.40;;;;;;;;;;5085048;27;20214;-64
2023/03/09 09:46:44;;;;;;;2.17;1.20;;;;;;;;;;5087950;27;20613;-64
2023/03/09 09:49:19;;;;;;;3.87;1.30;;;;;;;;;;5084728;27;20642;-63
2023/03/09 09:51:47;;;;;;;3.67;1.50;;;;;;;;;;5083001;27;20208;-64
2023/03/09 09:54:30;;;;;;;3.50;1.37;;;;;;;;;;5083676;28;20453;-64
2023/03/09 09:57:03;;;;;;;2.27;1.23;;;;;;;;;;5089650;28;20255;-63
2023/03/09 09:59:37;;;;;;;2.37;1.23;;;;;;;;;;5102663;27;20627;-62
2023/03/09 10:02:08;;;;;;;3.50;1.17;;;;;;;;;;5080980;28;20394;-62
2023/03/09 10:04:39;;;;;;;1.53;1.10;;;;;;;;;;5087585;27;20247;-62
2023/03/09 10:07:20;;;;;;;3.13;1.13;;;;;;;;;;5084788;27;20582;-64
2023/03/09 10:09:53;;;;;;;2.93;1.20;;;;;;;;;;5077070;27;20669;-61
2023/03/09 10:12:23;;;;;;;3.77;1.20;;;;;;;;;;5087718;28;20708;-62
2023/03/09 10:15:00;;;;;;;3.03;1.17;;;;;;;;;;5086045;27;20200;-62
2023/03/09 10:17:36;;;;;;;3.70;1.33;;;;;;;;;;5076511;28;20228;-63
2023/03/09 10:20:14;;;;;;;4.00;1.70;;;;;;;;;;5080766;28;20659;-63
2023/03/09 10:22:44;;;;;;;1.57;1.17;;;;;;;;;;5080281;28;20389;-64
2023/03/09 10:25:12;;;;;;;3.23;1.20;;;;;;;;;;5082310;28;20196;-63
2023/03/09 10:27:48;;;;;;;1.30;1.20;;;;;;;;;;5079676;27;20303;-63
2023/03/09 10:30:18;;;;;;;4.13;1.40;;;;;;;;;;5086823;28;20619;-63
2023/03/09 10:32:53;;;;;;;5.50;2.10;;;;;;;;;;5077900;28;20297;-64
2023/03/09 10:35:20;;;;;;;2.80;1.20;;;;;;;;;;5088937;28;20200;-64
2023/03/09 10:37:50;;;;;;;5.10;1.30;;;;;;;;;;5086226;28;20296;-64
2023/03/09 10:40:25;;;;;;;3.83;1.30;;;;;;;;;;5085726;28;20815;-63
2023/03/09 10:42:53;;;;;;;2.60;1.23;;;;;;;;;;5087680;28;20235;-62
2023/03/09 10:45:31;;;;;;;3.37;1.53;;;;;;;;;;5081234;28;20229;-63
2023/03/09 10:48:09;;;;;;;6.60;1.93;;;;;;;;;;5084373;28;20219;-63
2023/03/09 10:50:40;;;;;;;3.30;1.97;;;;;;;;;;5080418;28;23253;-63
2023/03/09 10:53:36;;;;;;;2.73;1.03;;;;;;;;;;5088778;28;20236;-64
2023/03/09 10:56:04;;;;;;;3.63;1.30;;;;;;;;;;5072612;28;20220;-64
2023/03/09 10:58:33;;;;;;;4.20;1.53;;;;;;;;;;5089500;28;20215;-64
2023/03/09 11:01:03;;;;;;;5.07;1.30;;;;;;;;;;5104649;28;20265;-64
2023/03/09 11:03:32;;;;;;;3.37;1.57;;;;;;;;;;5102431;28;20697;-64
2023/03/09 11:06:08;;;;;;;3.97;1.40;;;;;;;;;;5097801;28;20232;-62
2023/03/09 11:08:37;;;;;;;3.87;1.80;;;;;;;;;;5106152;28;20234;-64
2023/03/09 11:11:25;;;;;;;4.07;1.53;;;;;;;;;;5103290;28;20204;-65
2023/03/09 11:13:53;;;;;;;4.17;1.40;;;;;;;;;;5120788;27;20228;-63
2023/03/09 11:16:28;;;;;;;2.63;1.40;;;;;;;;;;5104325;28;20216;-64
2023/03/09 11:19:04;;;;;;;3.87;1.77;;;;;;;;;;5098567;27;20208;-62
2023/03/09 11:21:32;;;;;;;4.57;1.20;;;;;;;;;;5108210;28;20201;-62
2023/03/09 11:24:01;;;;;;;3.60;1.27;;;;;;;;;;5111444;28;20200;-64
2023/03/09 11:26:46;;;;;;;5.40;1.27;;;;;;;;;;5109323;28;20200;-62
2023/03/09 11:29:32;;;;;;;1.10;1.10;;;;;;;;;;5106763;28;20294;-62
2023/03/09 11:32:00;;;;;;;3.63;1.60;;;;;;;;;;5109836;28;20220;-62
2023/03/09 11:34:30;;;;;;;4.07;1.40;;;;;;;;;;5108177;27;20208;-63
2023/03/09 11:37:09;;;;;;;4.30;1.57;;;;;;;;;;5111742;27;20220;-63
2023/03/09 11:39:56;;;;;;;2.30;1.30;;;;;;;;;;5112377;28;20205;-64
2023/03/09 11:42:35;;;;;;;1.63;1.30;;;;;;;;;;5110440;28;20319;-63
2023/03/09 11:45:05;;;;;;;4.30;1.80;;;;;;;;;;5124299;27;20188;-63
2023/03/09 11:47:35;;;;;;;3.83;1.80;;;;;;;;;;5110735;28;20208;-62
2023/03/09 11:50:16;;;;;;;5.27;1.97;;;;;;;;;;5112099;28;20729;-63
2023/03/09 11:52:51;;;;;;;3.07;1.70;;;;;;;;;;5104966;28;20228;-62
2023/03/09 11:55:21;;;;;;;3.70;1.83;;;;;;;;;;5094612;27;20231;-63
2023/03/09 11:57:50;;;;;;;5.00;2.10;;;;;;;;;;5091804;27;20239;-64
2023/03/09 12:00:19;;;;;;;4.50;1.60;;;;;;;;;;5083111;28;22430;-62
2023/03/09 12:02:47;;;;;;;5.03;1.43;;;;;;;;;;5092990;28;20530;-62
2023/03/09 12:05:15;;;;;;;4.93;1.47;;;;;;;;;;5104406;27;20230;-62
2023/03/09 12:07:53;;;;;;;3.00;1.60;;;;;;;;;;5092481;28;20796;-62
2023/03/09 12:10:25;;;;;;;2.67;1.40;;;;;;;;;;5111890;27;20262;-63
2023/03/09 12:13:00;;;;;;;3.43;2.27;;;;;;;;;;5083578;27;20224;-62
2023/03/09 12:15:42;;;;;;;3.27;1.50;;;;;;;;;;5094862;27;20201;-63
2023/03/09 12:18:20;;;;;;;3.87;1.60;;;;;;;;;;5110155;28;20211;-64
2023/03/09 12:21:08;;;;;;;5.90;1.60;;;;;;;;;;5110996;28;20184;-64
2023/03/09 12:23:35;;;;;;;3.47;1.20;;;;;;;;;;5111029;28;20220;-63
2023/03/09 12:26:05;;;;;;;3.13;1.63;;;;;;;;;;5123399;27;20192;-63
2023/03/09 12:28:33;;;;;;;1.80;1.40;;;;;;;;;;5102942;28;20276;-63
2023/03/09 12:31:05;;;;;;;3.83;1.43;;;;;;;;;;5089149;28;20324;-63
2023/03/09 12:33:41;;;;;;;3.73;1.33;;;;;;;;;;5087639;27;20232;-63
2023/03/09 12:36:21;;;;;;;2.20;1.20;;;;;;;;;;5100509;28;20239;-63
2023/03/09 12:39:07;;;;;;;3.83;1.40;;;;;;;;;;5090543;27;20200;-63
2023/03/09 12:41:53;;;;;;;3.37;1.73;;;;;;;;;;5093211;28;20295;-63
2023/03/09 12:44:47;;;;;;;3.63;1.27;;;;;;;;;;5085895;28;20257;-64
2023/03/09 12:47:20;;;;;;;3.47;1.20;;;;;;;;;;5081394;27;20204;-64
2023/03/09 12:49:56;;;;;;;2.93;1.20;;;;;;;;;;5089776;27;20204;-63
2023/03/09 12:52:29;;;;;;;3.83;1.60;;;;;;;;;;5089681;27;20327;-64
2023/03/09 12:54:57;;;;;;;3.77;1.20;;;;;;;;;;5088645;27;20295;-63
2023/03/09 12:57:26;;;;;;;5.30;2.03;;;;;;;;;;5090805;28;20314;-64
2023/03/09 12:59:53;;;;;;;3.50;1.20;;;;;;;;;;5105316;28;20249;-64
2023/03/09 13:02:23;;;;;;;4.47;1.60;;;;;;;;;;5107193;28;20625;-64
2023/03/09 13:05:09;;;;;;;2.50;1.30;;;;;;;;;;5103295;28;20231;-64
2023/03/09 13:07:37;;;;;;;1.83;1.57;;;;;;;;;;5110495;28;20200;-63
2023/03/09 13:10:05;;;;;;;1.20;1.00;;;;;;;;;;5094124;28;20236;-64
2023/03/09 13:12:33;;;;;;;1.23;1.00;;;;;;;;;;5084046;27;20243;-64
2023/03/09 13:15:06;;;;;;;2.60;1.20;;;;;;;;;;5087565;27;20232;-64
2023/03/09 13:17:38;;;;;;;3.60;1.03;;;;;;;;;;5081209;28;20345;-64
2023/03/09 13:20:16;;;;;;;1.40;1.17;;;;;;;;;;5087100;27;20196;-65
2023/03/09 13:22:44;;;;;;;2.10;1.27;;;;;;;;;;5089448;28;20227;-64
2023/03/09 13:25:29;;;;;;;2.63;1.57;;;;;;;;;;5086219;27;20355;-65
2023/03/09 13:28:01;;;;;;;4.47;1.50;;;;;;;;;;5086997;28;20207;-65
2023/03/09 13:30:31;;;;;;;2.80;1.17;;;;;;;;;;5086804;28;20209;-65
2023/03/09 13:32:58;;;;;;;2.77;1.30;;;;;;;;;;5101855;27;20232;-64
2023/03/09 13:35:44;;;;;;;1.40;1.00;;;;;;;;;;5101516;27;20240;-67
2023/03/09 13:38:32;;;;;;;1.90;1.17;;;;;;;;;;5080812;28;20224;-65
2023/03/09 13:41:01;;;;;;;1.80;1.70;;;;;;;;;;5100531;27;20258;-64
2023/03/09 13:43:33;;;;;;;1.80;1.10;;;;;;;;;;5084241;28;20224;-64
2023/03/09 13:46:06;;;;;;;2.97;1.00;;;;;;;;;;5086277;28;20204;-65
2023/03/09 13:48:35;;;;;;;1.60;0.97;;;;;;;;;;5084660;27;20295;-65
2023/03/09 13:51:03;;;;;;;1.20;0.97;;;;;;;;;;5087806;27;20235;-64
2023/03/09 13:53:30;;;;;;;2.20;1.00;;;;;;;;;;5082678;27;21172;-65
2023/03/09 13:56:03;;;;;;;1.43;0.90;;;;;;;;;;5085769;27;20196;-65
2023/03/09 13:58:37;;;;;;;3.05;1.13;;;;;;;;;;5083505;27;20224;-65
2023/03/09 14:01:05;;;;;;;1.57;1.10;;;;;;;;;;5089445;27;20228;-65
2023/03/09 14:03:36;;;;;;;2.13;1.20;;;;;;;;;;5089689;28;20224;-65
2023/03/09 14:06:10;;;;;;;2.67;1.20;;;;;;;;;;5084055;28;20706;-65
2023/03/09 14:09:05;;;;;;;2.87;1.00;;;;;;;;;;5097546;27;20207;-65
2023/03/09 14:11:32;;;;;;;1.90;0.80;;;;;;;;;;5084134;27;20273;-64
2023/03/09 14:14:04;;;;;;;2.13;1.10;;;;;;;;;;5086912;28;20743;-64
2023/03/09 14:16:32;;;;;;;2.80;1.70;;;;;;;;;;5103510;27;20228;-64
2023/03/09 14:19:01;;;;;;;5.37;2.10;;;;;;;;;;5089960;28;20294;-65
2023/03/09 14:21:32;;;;;;;2.23;1.57;;;;;;;;;;5089189;27;20291;-65
2023/03/09 14:24:18;;;;;;;2.70;1.77;;;;;;;;;;5084109;28;20209;-65
2023/03/09 14:26:46;;;;;;;3.33;2.10;;;;;;;;;;5084012;28;20412;-65
2023/03/09 14:29:16;;;;;;;1.27;0.90;;;;;;;;;;5087776;28;20212;-64
2023/03/09 14:31:44;;;;;;;2.47;1.27;;;;;;;;;;5085135;28;20827;-65
2023/03/09 14:34:15;;;;;;;4.67;2.10;;;;;;;;;;5087068;28;20249;-65
2023/03/09 14:36:46;;;;;;;1.80;1.40;;;;;;;;;;5079982;28;20580;-64
2023/03/09 14:39:25;;;;;;;3.70;1.60;;;;;;;;;;5089708;28;20203;-65
2023/03/09 14:42:07;;;;;;;2.60;1.20;;;;;;;;;;5094678;28;20220;-65
2023/03/09 14:44:39;;;;;;;2.27;1.60;;;;;;;;;;5083081;28;20192;-65
2023/03/09 14:47:20;;;;;;;2.00;1.47;;;;;;;;;;5087814;28;22153;-64
2023/03/09 14:49:48;;;;;;;4.50;1.53;;;;;;;;;;5088975;28;20207;-64
2023/03/09 14:52:16;;;;;;;2.17;1.17;;;;;;;;;;5087645;28;20265;-65
2023/03/09 14:54:46;;;;;;;3.93;1.60;;;;;;;;;;5086501;28;20674;-64
2023/03/09 14:57:15;;;;;;;2.47;1.17;;;;;;;;;;5088723;28;20709;-64
2023/03/09 14:59:43;;;;;;;5.30;1.50;;;;;;;;;;5105606;28;20200;-64